Time,TemperatureF,DewpointF,PressureIn,WindDirection,WindDirectionDegrees,WindSpeedMPH,WindSpeedGustMPH,Humidity,HourlyPrecipIn,Conditions,Clouds,dailyrainin,SoftwareType,DateUTC
2013-01-30 00:00:00,48.8,48.0,29.98,WSW,244,7.0,7.0,97,0.00,,,0.00,Wunderground v.1.15,2013-01-30 05:00:00,
2013-01-30 00:05:00,48.7,47.9,29.98,SW,226,7.0,8.0,97,0.00,,,0.00,Wunderground v.1.15,2013-01-30 05:05:00,
2013-01-30 00:10:00,48.8,48.0,29.98,SW,229,7.0,7.0,97,0.00,,,0.00,Wunderground v.1.15,2013-01-30 05:10:00,
2013-01-30 00:15:00,48.8,48.0,29.97,SSW,201,6.0,7.0,97,0.00,,,0.00,Wunderground v.1.15,2013-01-30 05:15:00,
2013-01-30 00:20:00,48.8,48.0,29.96,SSW,202,5.0,12.0,97,0.00,,,0.00,Wunderground v.1.15,2013-01-30 05:20:00,
2013-01-30 00:30:00,48.9,48.1,29.95,SSW,212,5.0,5.0,97,0.00,,,0.00,Wunderground v.1.15,2013-01-30 05:30:00,
2013-01-30 00:35:00,49.0,47.9,29.95,SSW,211,5.0,11.0,96,0.00,,,0.00,Wunderground v.1.15,2013-01-30 05:35:00,
2013-01-30 00:40:00,49.1,48.0,29.95,SW,223,6.0,7.0,96,0.00,,,0.00,Wunderground v.1.15,2013-01-30 05:40:00,
2013-01-30 00:45:00,49.1,48.0,29.94,SSW,211,6.0,7.0,96,0.00,,,0.00,Wunderground v.1.15,2013-01-30 05:45:00,
2013-01-30 00:50:00,49.2,48.1,29.94,SSW,196,6.0,11.0,96,0.00,,,0.00,Wunderground v.1.15,2013-01-30 05:50:00,
2013-01-30 00:55:00,49.5,48.4,29.94,South,187,6.0,11.0,96,0.00,,,0.00,Wunderground v.1.15,2013-01-30 05:55:00,
2013-01-30 01:00:00,49.6,48.5,29.93,SSW,206,7.0,7.0,96,0.00,,,0.00,Wunderground v.1.15,2013-01-30 06:00:00,
2013-01-30 01:10:00,49.7,48.3,29.93,SW,217,6.0,6.0,95,0.00,,,0.00,Wunderground v.1.15,2013-01-30 06:10:00,
2013-01-30 01:20:00,49.8,48.4,29.92,SSW,211,7.0,7.0,95,0.00,,,0.00,Wunderground v.1.15,2013-01-30 06:20:00,
2013-01-30 01:25:00,50.0,48.6,29.91,SW,217,8.0,8.0,95,0.00,,,0.00,Wunderground v.1.15,2013-01-30 06:25:00,
2013-01-30 01:30:00,50.1,48.7,29.91,South,190,7.0,8.0,95,0.00,,,0.00,Wunderground v.1.15,2013-01-30 06:30:00,
2013-01-30 01:40:00,50.3,48.6,29.91,SSW,213,8.0,9.0,94,0.00,,,0.00,Wunderground v.1.15,2013-01-30 06:40:00,
2013-01-30 01:45:00,50.4,48.7,29.90,WSW,242,7.0,9.0,94,0.00,,,0.00,Wunderground v.1.15,2013-01-30 06:45:00,
2013-01-30 01:50:00,50.2,48.3,29.90,WSW,238,7.0,7.0,93,0.00,,,0.00,Wunderground v.1.15,2013-01-30 06:50:00,
2013-01-30 01:55:00,50.3,48.6,29.89,SSW,206,8.0,10.0,94,0.00,,,0.00,Wunderground v.1.15,2013-01-30 06:55:00,
2013-01-30 02:00:00,50.3,48.6,29.88,SW,218,10.0,10.0,94,0.00,,,0.00,Wunderground v.1.15,2013-01-30 07:00:00,
2013-01-30 02:10:00,50.2,48.3,29.88,WSW,243,7.0,7.0,93,0.00,,,0.00,Wunderground v.1.15,2013-01-30 07:10:00,
2013-01-30 02:20:00,50.1,48.4,29.88,SW,227,7.0,7.0,94,0.00,,,0.00,Wunderground v.1.15,2013-01-30 07:20:00,
2013-01-30 02:30:00,50.2,48.3,29.86,SSW,211,9.0,9.0,93,0.00,,,0.00,Wunderground v.1.15,2013-01-30 07:30:00,
2013-01-30 02:35:00,50.1,48.2,29.87,WSW,244,8.0,15.0,93,0.00,,,0.00,Wunderground v.1.15,2013-01-30 07:35:00,
2013-01-30 02:40:00,50.2,48.3,29.87,WSW,255,8.0,11.0,93,0.00,,,0.00,Wunderground v.1.15,2013-01-30 07:40:00,
2013-01-30 02:45:00,50.1,48.2,29.86,WSW,240,9.0,11.0,93,0.00,,,0.00,Wunderground v.1.15,2013-01-30 07:45:00,
2013-01-30 02:50:00,50.0,48.1,29.86,SW,223,10.0,16.0,93,0.00,,,0.00,Wunderground v.1.15,2013-01-30 07:50:00,
2013-01-30 02:55:00,50.1,48.2,29.85,South,183,9.0,16.0,93,0.00,,,0.00,Wunderground v.1.15,2013-01-30 07:55:00,
2013-01-30 03:00:00,50.1,48.2,29.85,SW,227,9.0,10.0,93,0.00,,,0.00,Wunderground v.1.15,2013-01-30 08:00:00,
2013-01-30 03:10:00,50.1,48.2,29.83,SSW,202,9.0,9.0,93,0.00,,,0.00,Wunderground v.1.15,2013-01-30 08:10:00,
2013-01-30 03:15:00,50.3,48.4,29.83,SW,230,9.0,9.0,93,0.00,,,0.00,Wunderground v.1.15,2013-01-30 08:15:00,
2013-01-30 03:20:00,50.3,48.4,29.83,SSW,205,10.0,10.0,93,0.00,,,0.00,Wunderground v.1.15,2013-01-30 08:20:00,
2013-01-30 03:25:00,50.5,48.6,29.83,SW,232,11.0,18.0,93,0.00,,,0.00,Wunderground v.1.15,2013-01-30 08:25:00,
2013-01-30 03:30:00,50.5,48.3,29.83,WSW,251,12.0,17.0,92,0.00,,,0.00,Wunderground v.1.15,2013-01-30 08:30:00,
2013-01-30 03:40:00,50.9,48.7,29.83,SW,221,12.0,12.0,92,0.00,,,0.00,Wunderground v.1.15,2013-01-30 08:40:00,
2013-01-30 03:45:00,50.8,48.6,29.83,WSW,252,12.0,12.0,92,0.00,,,0.00,Wunderground v.1.15,2013-01-30 08:45:00,
2013-01-30 03:50:00,50.9,48.7,29.83,West,263,11.0,11.0,92,0.00,,,0.00,Wunderground v.1.15,2013-01-30 08:50:00,
2013-01-30 03:55:00,50.9,48.7,29.83,South,190,12.0,12.0,92,0.00,,,0.00,Wunderground v.1.15,2013-01-30 08:55:00,
2013-01-30 04:00:00,50.8,48.6,29.82,WSW,244,11.0,16.0,92,0.00,,,0.00,Wunderground v.1.15,2013-01-30 09:00:00,
2013-01-30 04:10:00,50.8,48.6,29.82,SSE,149,11.0,11.0,92,0.00,,,0.00,Wunderground v.1.15,2013-01-30 09:10:00,
2013-01-30 04:15:00,50.8,48.6,29.82,SSW,213,11.0,11.0,92,0.00,,,0.00,Wunderground v.1.15,2013-01-30 09:15:00,
2013-01-30 04:25:00,50.8,48.6,29.82,South,171,8.0,9.0,92,0.00,,,0.00,Wunderground v.1.15,2013-01-30 09:25:00,
2013-01-30 04:30:00,50.7,48.2,29.81,West,281,9.0,9.0,91,0.00,,,0.00,Wunderground v.1.15,2013-01-30 09:30:00,
2013-01-30 04:35:00,50.7,48.2,29.81,SSW,199,9.0,9.0,91,0.00,,,0.00,Wunderground v.1.15,2013-01-30 09:35:00,
2013-01-30 04:45:00,50.6,48.1,29.80,South,184,8.0,9.0,91,0.00,,,0.00,Wunderground v.1.15,2013-01-30 09:45:00,
2013-01-30 04:50:00,50.5,48.3,29.79,WSW,238,8.0,11.0,92,0.00,,,0.00,Wunderground v.1.15,2013-01-30 09:50:00,
2013-01-30 04:55:00,50.5,48.3,29.79,SSW,209,9.0,14.0,92,0.00,,,0.00,Wunderground v.1.15,2013-01-30 09:55:00,
2013-01-30 05:00:00,50.6,48.1,29.79,SW,229,9.0,15.0,91,0.00,,,0.00,Wunderground v.1.15,2013-01-30 10:00:00,
2013-01-30 05:10:00,50.6,48.1,29.78,SW,219,10.0,12.0,91,0.00,,,0.00,Wunderground v.1.15,2013-01-30 10:10:00,
2013-01-30 05:20:00,50.7,48.2,29.77,SSW,212,10.0,13.0,91,0.00,,,0.00,Wunderground v.1.15,2013-01-30 10:20:00,
2013-01-30 05:25:00,50.6,48.1,29.76,South,179,10.0,13.0,91,0.00,,,0.00,Wunderground v.1.15,2013-01-30 10:25:00,
2013-01-30 05:30:00,50.6,48.1,29.76,SW,220,10.0,10.0,91,0.00,,,0.00,Wunderground v.1.15,2013-01-30 10:30:00,
2013-01-30 05:35:00,50.7,48.2,29.76,SSW,208,10.0,10.0,91,0.00,,,0.00,Wunderground v.1.15,2013-01-30 10:35:00,
2013-01-30 05:40:00,50.7,48.2,29.75,SW,227,10.0,19.0,91,0.00,,,0.00,Wunderground v.1.15,2013-01-30 10:40:00,
2013-01-30 05:50:00,50.7,48.2,29.75,SSW,196,10.0,17.0,91,0.00,,,0.00,Wunderground v.1.15,2013-01-30 10:50:00,
2013-01-30 05:55:00,50.7,47.9,29.75,SSW,210,11.0,17.0,90,0.00,,,0.00,Wunderground v.1.15,2013-01-30 10:55:00,
2013-01-30 06:05:00,50.7,47.9,29.74,SW,227,12.0,15.0,90,0.00,,,0.00,Wunderground v.1.15,2013-01-30 11:05:00,
2013-01-30 06:10:00,50.8,48.3,29.74,SW,223,11.0,13.0,91,0.00,,,0.00,Wunderground v.1.15,2013-01-30 11:10:00,
2013-01-30 06:15:00,50.8,48.0,29.74,WSW,251,9.0,13.0,90,0.00,,,0.00,Wunderground v.1.15,2013-01-30 11:15:00,
2013-01-30 06:20:00,50.8,48.0,29.75,South,173,10.0,10.0,90,0.00,,,0.00,Wunderground v.1.15,2013-01-30 11:20:00,
2013-01-30 06:25:00,50.9,48.1,29.74,WSW,250,10.0,10.0,90,0.00,,,0.00,Wunderground v.1.15,2013-01-30 11:25:00,
2013-01-30 06:30:00,51.0,48.2,29.74,SW,223,9.0,9.0,90,0.00,,,0.00,Wunderground v.1.15,2013-01-30 11:30:00,
2013-01-30 06:35:00,51.2,48.4,29.74,SW,217,9.0,16.0,90,0.00,,,0.00,Wunderground v.1.15,2013-01-30 11:35:00,
2013-01-30 06:40:00,51.1,48.3,29.73,SSW,211,10.0,10.0,90,0.00,,,0.00,Wunderground v.1.15,2013-01-30 11:40:00,
2013-01-30 06:45:00,51.2,48.4,29.73,SW,215,11.0,11.0,90,0.00,,,0.00,Wunderground v.1.15,2013-01-30 11:45:00,
2013-01-30 06:55:00,51.2,48.4,29.71,SW,215,12.0,13.0,90,0.00,,,0.00,Wunderground v.1.15,2013-01-30 11:55:00,
2013-01-30 07:00:00,51.4,48.6,29.71,SW,215,15.0,19.0,90,0.00,,,0.00,Wunderground v.1.15,2013-01-30 12:00:00,
2013-01-30 07:10:00,51.5,48.4,29.71,SW,217,16.0,16.0,89,0.00,,,0.00,Wunderground v.1.15,2013-01-30 12:10:00,
2013-01-30 07:15:00,51.4,48.3,29.71,SW,231,13.0,16.0,89,0.00,,,0.00,Wunderground v.1.15,2013-01-30 12:15:00,
2013-01-30 07:20:00,51.5,48.4,29.71,SW,219,13.0,25.0,89,0.00,,,0.00,Wunderground v.1.15,2013-01-30 12:20:00,
2013-01-30 07:25:00,51.4,48.3,29.71,SSW,203,14.0,25.0,89,0.00,,,0.00,Wunderground v.1.15,2013-01-30 12:25:00,
2013-01-30 07:35:00,51.4,48.6,29.69,WSW,243,15.0,18.0,90,0.00,,,0.00,Wunderground v.1.15,2013-01-30 12:35:00,
2013-01-30 07:40:00,51.4,48.6,29.69,SSW,192,15.0,15.0,90,0.00,,,0.00,Wunderground v.1.15,2013-01-30 12:40:00,
2013-01-30 07:45:00,51.4,48.6,29.69,SW,232,14.0,15.0,90,0.00,,,0.00,Wunderground v.1.15,2013-01-30 12:45:00,
2013-01-30 07:55:00,51.5,48.7,29.68,WSW,239,15.0,15.0,90,0.00,,,0.00,Wunderground v.1.15,2013-01-30 12:55:00,
2013-01-30 08:00:00,51.5,48.7,29.68,SW,225,16.0,16.0,90,0.00,,,0.00,Wunderground v.1.15,2013-01-30 13:00:00,
2013-01-30 08:10:00,51.4,48.6,29.68,West,277,12.0,12.0,90,0.00,,,0.00,Wunderground v.1.15,2013-01-30 13:10:00,
2013-01-30 08:15:00,51.4,48.6,29.67,SW,232,11.0,13.0,90,0.00,,,0.00,Wunderground v.1.15,2013-01-30 13:15:00,
2013-01-30 08:20:00,51.5,49.0,29.67,WSW,246,12.0,12.0,91,0.00,,,0.00,Wunderground v.1.15,2013-01-30 13:20:00,
2013-01-30 08:25:00,51.6,49.1,29.66,SSE,165,12.0,12.0,91,0.00,,,0.00,Wunderground v.1.15,2013-01-30 13:25:00,
2013-01-30 08:30:00,51.7,49.2,29.67,SSW,194,12.0,12.0,91,0.00,,,0.00,Wunderground v.1.15,2013-01-30 13:30:00,
2013-01-30 08:35:00,51.8,49.3,29.67,SW,215,12.0,12.0,91,0.00,,,0.00,Wunderground v.1.15,2013-01-30 13:35:00,
2013-01-30 08:44:00,52.1,49.6,29.67,WSW,240,13.0,13.0,91,0.00,,,0.00,Wunderground v.1.15,2013-01-30 13:44:00,
2013-01-30 08:50:00,52.1,49.6,29.67,SSW,199,13.0,13.0,91,0.00,,,0.00,Wunderground v.1.15,2013-01-30 13:50:00,
2013-01-30 08:55:00,52.3,49.5,29.66,SSW,210,13.0,13.0,90,0.00,,,0.00,Wunderground v.1.15,2013-01-30 13:55:00,
2013-01-30 09:00:00,52.4,49.6,29.66,WSW,246,13.0,16.0,90,0.00,,,0.00,Wunderground v.1.15,2013-01-30 14:00:00,
2013-01-30 09:10:00,52.6,49.8,29.65,SSW,211,13.0,13.0,90,0.00,,,0.00,Wunderground v.1.15,2013-01-30 14:10:00,
2013-01-30 09:15:00,52.7,50.1,29.65,South,188,12.0,20.0,91,0.00,,,0.00,Wunderground v.1.15,2013-01-30 14:15:00,
2013-01-30 09:20:00,52.7,50.1,29.64,WSW,238,12.0,21.0,91,0.00,,,0.00,Wunderground v.1.15,2013-01-30 14:20:00,
2013-01-30 09:25:00,52.8,50.2,29.64,SW,217,12.0,21.0,91,0.00,,,0.00,Wunderground v.1.15,2013-01-30 14:25:00,
2013-01-30 09:30:00,53.0,50.4,29.64,SW,234,12.0,12.0,91,0.00,,,0.00,Wunderground v.1.15,2013-01-30 14:30:00,
2013-01-30 09:35:00,53.2,50.6,29.63,WSW,239,12.0,12.0,91,0.00,,,0.00,Wunderground v.1.15,2013-01-30 14:35:00,
2013-01-30 09:44:00,53.4,50.8,29.63,West,270,12.0,25.0,91,0.00,,,0.00,Wunderground v.1.15,2013-01-30 14:44:00,
2013-01-30 09:49:00,53.6,51.0,29.63,ESE,117,11.0,24.0,91,0.00,,,0.00,Wunderground v.1.15,2013-01-30 14:49:00,
2013-01-30 09:54:00,53.7,51.1,29.62,SW,219,11.0,24.0,91,0.00,,,0.00,Wunderground v.1.15,2013-01-30 14:54:00,
2013-01-30 10:00:00,53.9,51.3,29.61,SW,231,11.0,11.0,91,0.00,,,0.00,Wunderground v.1.15,2013-01-30 15:00:00,
2013-01-30 10:10:00,54.5,51.6,29.60,South,173,13.0,15.0,90,0.00,,,0.00,Wunderground v.1.15,2013-01-30 15:10:00,
2013-01-30 10:15:00,54.6,51.7,29.61,WSW,252,14.0,17.0,90,0.00,,,0.00,Wunderground v.1.15,2013-01-30 15:15:00,
2013-01-30 10:25:00,54.9,52.0,29.60,SSW,202,13.0,14.0,90,0.00,,,0.00,Wunderground v.1.15,2013-01-30 15:25:00,
2013-01-30 10:35:00,55.2,52.3,29.59,SSW,213,13.0,16.0,90,0.00,,,0.00,Wunderground v.1.15,2013-01-30 15:35:00,
2013-01-30 10:40:00,55.2,52.3,29.58,SSW,198,14.0,19.0,90,0.00,,,0.00,Wunderground v.1.15,2013-01-30 15:40:00,
2013-01-30 10:45:00,55.4,52.5,29.59,South,186,14.0,19.0,90,0.00,,,0.00,Wunderground v.1.15,2013-01-30 15:45:00,
2013-01-30 10:54:00,55.6,52.7,29.58,West,265,12.0,14.0,90,0.00,,,0.00,Wunderground v.1.15,2013-01-30 15:54:00,
2013-01-30 11:00:00,55.8,52.9,29.58,SW,221,13.0,13.0,90,0.00,,,0.00,Wunderground v.1.15,2013-01-30 16:00:00,
2013-01-30 11:10:00,56.1,52.9,29.59,WSW,248,13.0,15.0,89,0.00,,,0.00,Wunderground v.1.15,2013-01-30 16:10:00,
2013-01-30 11:15:00,56.4,53.2,29.59,SSW,202,13.0,18.0,89,0.00,,,0.00,Wunderground v.1.15,2013-01-30 16:15:00,
2013-01-30 11:20:00,56.6,53.1,29.59,WSW,248,14.0,16.0,88,0.00,,,0.00,Wunderground v.1.15,2013-01-30 16:20:00,
2013-01-30 11:25:00,56.7,53.2,29.59,SW,217,14.0,16.0,88,0.00,,,0.00,Wunderground v.1.15,2013-01-30 16:25:00,
2013-01-30 11:35:00,56.7,53.2,29.58,SW,220,11.0,18.0,88,0.00,,,0.00,Wunderground v.1.15,2013-01-30 16:35:00,
2013-01-30 11:40:00,56.8,53.3,29.57,SSW,201,13.0,19.0,88,0.00,,,0.00,Wunderground v.1.15,2013-01-30 16:40:00,
2013-01-30 11:45:00,56.8,53.3,29.57,SSW,202,13.0,19.0,88,0.00,,,0.00,Wunderground v.1.15,2013-01-30 16:45:00,
2013-01-30 11:50:00,56.9,53.4,29.57,West,261,14.0,24.0,88,0.00,,,0.00,Wunderground v.1.15,2013-01-30 16:50:00,
2013-01-30 11:55:00,57.1,53.6,29.57,WSW,248,15.0,24.0,88,0.00,,,0.00,Wunderground v.1.15,2013-01-30 16:55:00,
2013-01-30 12:00:00,57.3,53.5,29.57,WSW,242,15.0,15.0,87,0.00,,,0.00,Wunderground v.1.15,2013-01-30 17:00:00,
2013-01-30 12:10:00,57.7,53.9,29.57,SW,230,15.0,20.0,87,0.00,,,0.00,Wunderground v.1.15,2013-01-30 17:10:00,
2013-01-30 12:19:00,57.7,53.9,29.57,WSW,256,16.0,19.0,87,0.00,,,0.00,Wunderground v.1.15,2013-01-30 17:19:00,
2013-01-30 12:25:00,57.8,54.0,29.58,WNW,284,15.0,19.0,87,0.00,,,0.00,Wunderground v.1.15,2013-01-30 17:25:00,
2013-01-30 12:30:00,57.6,53.8,29.58,WSW,250,15.0,15.0,87,0.00,,,0.00,Wunderground v.1.15,2013-01-30 17:30:00,
2013-01-30 12:35:00,57.6,53.8,29.57,WSW,248,15.0,15.0,87,0.00,,,0.00,Wunderground v.1.15,2013-01-30 17:35:00,
2013-01-30 12:45:00,57.5,54.0,29.57,WSW,248,14.0,18.0,88,0.00,,,0.00,Wunderground v.1.15,2013-01-30 17:45:00,
2013-01-30 12:50:00,57.3,53.8,29.57,WSW,255,12.0,12.0,88,0.00,,,0.00,Wunderground v.1.15,2013-01-30 17:50:00,
2013-01-30 12:55:00,57.2,53.7,29.57,WSW,246,10.0,12.0,88,0.00,,,0.00,Wunderground v.1.15,2013-01-30 17:55:00,
2013-01-30 13:00:00,57.2,53.7,29.57,WSW,245,11.0,16.0,88,0.00,,,0.00,Wunderground v.1.15,2013-01-30 18:00:00,
2013-01-30 13:05:00,57.3,53.8,29.57,WSW,246,12.0,16.0,88,0.00,,,0.00,Wunderground v.1.15,2013-01-30 18:05:00,
2013-01-30 13:14:00,57.5,54.0,29.59,West,266,11.0,13.0,88,0.00,,,0.00,Wunderground v.1.15,2013-01-30 18:14:00,
2013-01-30 13:19:00,57.5,54.0,29.59,WSW,250,11.0,12.0,88,0.00,,,0.00,Wunderground v.1.15,2013-01-30 18:19:00,
2013-01-30 13:25:00,57.7,54.2,29.59,WSW,237,11.0,12.0,88,0.00,,,0.00,Wunderground v.1.15,2013-01-30 18:25:00,
2013-01-30 13:30:00,57.8,54.0,29.59,West,259,11.0,11.0,87,0.00,,,0.00,Wunderground v.1.15,2013-01-30 18:30:00,
2013-01-30 13:35:00,57.8,54.0,29.58,WSW,240,10.0,11.0,87,0.00,,,0.00,Wunderground v.1.15,2013-01-30 18:35:00,
2013-01-30 13:40:00,58.1,54.2,29.57,WSW,241,10.0,14.0,87,0.00,,,0.00,Wunderground v.1.15,2013-01-30 18:40:00,
2013-01-30 13:50:00,58.9,54.7,29.54,WSW,251,14.0,14.0,86,0.00,,,0.00,Wunderground v.1.15,2013-01-30 18:50:00,
2013-01-30 14:00:00,59.3,54.8,29.54,WSW,246,13.0,14.0,85,0.00,,,0.00,Wunderground v.1.15,2013-01-30 19:00:00,
2013-01-30 14:10:00,59.3,54.8,29.53,WSW,252,15.0,16.0,85,0.00,,,0.00,Wunderground v.1.15,2013-01-30 19:10:00,
2013-01-30 14:20:00,59.2,54.7,29.53,WSW,248,13.0,13.0,85,0.00,,,0.00,Wunderground v.1.15,2013-01-30 19:20:00,
2013-01-30 14:25:00,59.2,54.7,29.52,WSW,250,13.0,15.0,85,0.00,,,0.00,Wunderground v.1.15,2013-01-30 19:25:00,
2013-01-30 14:30:00,59.3,54.8,29.52,WSW,248,13.0,13.0,85,0.00,,,0.00,Wunderground v.1.15,2013-01-30 19:30:00,
2013-01-30 14:35:00,59.1,54.6,29.52,WSW,248,12.0,13.0,85,0.00,,,0.00,Wunderground v.1.15,2013-01-30 19:35:00,
2013-01-30 14:40:00,59.0,54.5,29.52,SW,234,11.0,11.0,85,0.00,,,0.00,Wunderground v.1.15,2013-01-30 19:40:00,
2013-01-30 14:45:00,59.0,54.8,29.52,SSW,194,12.0,12.0,86,0.00,,,0.00,Wunderground v.1.15,2013-01-30 19:45:00,
2013-01-30 14:54:00,59.1,54.6,29.53,WSW,255,13.0,16.0,85,0.00,,,0.00,Wunderground v.1.15,2013-01-30 19:54:00,
2013-01-30 15:00:00,59.2,54.7,29.53,WSW,247,13.0,13.0,85,0.00,,,0.00,Wunderground v.1.15,2013-01-30 20:00:00,
2013-01-30 15:10:00,59.0,54.8,29.54,West,267,12.0,12.0,86,0.00,,,0.00,Wunderground v.1.15,2013-01-30 20:10:00,
2013-01-30 15:15:00,59.0,54.8,29.54,WSW,250,12.0,12.0,86,0.00,,,0.00,Wunderground v.1.15,2013-01-30 20:15:00,
2013-01-30 15:20:00,59.0,54.5,29.54,SW,216,12.0,12.0,85,0.00,,,0.00,Wunderground v.1.15,2013-01-30 20:20:00,
2013-01-30 15:30:00,59.3,54.8,29.54,WSW,238,13.0,13.0,85,0.00,,,0.00,Wunderground v.1.15,2013-01-30 20:30:00,
2013-01-30 15:35:00,59.3,54.8,29.54,WSW,249,13.0,15.0,85,0.00,,,0.00,Wunderground v.1.15,2013-01-30 20:35:00,
2013-01-30 15:40:00,59.3,54.5,29.54,WSW,248,12.0,12.0,84,0.00,,,0.00,Wunderground v.1.15,2013-01-30 20:40:00,
2013-01-30 15:45:00,59.2,54.7,29.53,WSW,252,12.0,13.0,85,0.00,,,0.00,Wunderground v.1.15,2013-01-30 20:45:00,
2013-01-30 15:50:00,59.0,54.5,29.54,WSW,252,13.0,19.0,85,0.00,,,0.00,Wunderground v.1.15,2013-01-30 20:50:00,
2013-01-30 15:55:00,58.9,54.4,29.54,SW,234,13.0,19.0,85,0.00,,,0.00,Wunderground v.1.15,2013-01-30 20:55:00,
2013-01-30 16:00:00,58.9,54.4,29.53,WSW,252,13.0,15.0,85,0.00,,,0.00,Wunderground v.1.15,2013-01-30 21:00:00,
2013-01-30 16:09:00,58.9,54.4,29.51,WSW,250,13.0,13.0,85,0.00,,,0.00,Wunderground v.1.15,2013-01-30 21:09:00,
2013-01-30 16:15:00,58.9,54.4,29.51,SSW,206,13.0,13.0,85,0.00,,,0.00,Wunderground v.1.15,2013-01-30 21:15:00,
2013-01-30 16:20:00,58.9,54.4,29.51,WSW,245,13.0,19.0,85,0.00,,,0.00,Wunderground v.1.15,2013-01-30 21:20:00,
2013-01-30 16:25:00,58.9,54.4,29.51,WSW,246,14.0,19.0,85,0.00,,,0.00,Wunderground v.1.15,2013-01-30 21:25:00,
2013-01-30 16:30:00,59.0,54.2,29.51,SW,232,14.0,14.0,84,0.00,,,0.00,Wunderground v.1.15,2013-01-30 21:30:00,
2013-01-30 16:35:00,59.0,54.2,29.50,West,261,14.0,16.0,84,0.00,,,0.00,Wunderground v.1.15,2013-01-30 21:35:00,
2013-01-30 16:45:00,59.0,54.8,29.50,West,259,13.0,13.0,86,0.00,,,0.00,Wunderground v.1.15,2013-01-30 21:45:00,
2013-01-30 16:50:00,58.9,54.1,29.49,WSW,250,13.0,16.0,84,0.00,,,0.00,Wunderground v.1.15,2013-01-30 21:50:00,
2013-01-30 16:55:00,58.7,53.9,29.49,WSW,242,14.0,16.0,84,0.00,,,0.00,Wunderground v.1.15,2013-01-30 21:55:00,
2013-01-30 17:05:00,58.8,54.0,29.49,WSW,247,16.0,27.0,84,0.00,,,0.00,Wunderground v.1.15,2013-01-30 22:05:00,
2013-01-30 17:10:00,58.7,53.9,29.49,WSW,238,15.0,16.0,84,0.00,,,0.00,Wunderground v.1.15,2013-01-30 22:10:00,
2013-01-30 17:20:00,58.5,53.7,29.48,WSW,252,13.0,18.0,84,0.00,,,0.00,Wunderground v.1.15,2013-01-30 22:20:00,
2013-01-30 17:25:00,58.4,53.9,29.49,SW,235,13.0,18.0,85,0.00,,,0.00,Wunderground v.1.15,2013-01-30 22:25:00,
2013-01-30 17:30:00,58.3,53.8,29.50,WSW,246,12.0,12.0,85,0.00,,,0.00,Wunderground v.1.15,2013-01-30 22:30:00,
2013-01-30 17:35:00,58.2,53.7,29.49,SSW,192,12.0,17.0,85,0.00,,,0.00,Wunderground v.1.15,2013-01-30 22:35:00,
2013-01-30 17:40:00,57.9,53.7,29.50,WSW,240,12.0,12.0,86,0.00,,,0.00,Wunderground v.1.15,2013-01-30 22:40:00,
2013-01-30 17:49:00,57.4,53.6,29.50,WSW,254,9.0,19.0,87,0.00,,,0.00,Wunderground v.1.15,2013-01-30 22:49:00,
2013-01-30 17:54:00,57.4,53.6,29.51,WSW,256,10.0,19.0,87,0.00,,,0.00,Wunderground v.1.15,2013-01-30 22:54:00,
2013-01-30 18:00:00,57.6,53.4,29.51,WSW,250,11.0,14.0,86,0.00,,,0.00,Wunderground v.1.15,2013-01-30 23:00:00,
2013-01-30 18:10:00,57.6,53.4,29.50,SW,236,11.0,11.0,86,0.00,,,0.00,Wunderground v.1.15,2013-01-30 23:10:00,
2013-01-30 18:15:00,57.2,53.4,29.49,SW,219,11.0,12.0,87,0.00,,,0.00,Wunderground v.1.15,2013-01-30 23:15:00,
2013-01-30 18:25:00,56.6,52.8,29.47,WSW,246,9.0,11.0,87,0.00,,,0.00,Wunderground v.1.15,2013-01-30 23:25:00,
2013-01-30 18:30:00,56.3,52.8,29.48,WSW,257,8.0,10.0,88,0.00,,,0.00,Wunderground v.1.15,2013-01-30 23:30:00,
2013-01-30 18:35:00,56.5,53.0,29.48,SW,234,10.0,10.0,88,0.00,,,0.00,Wunderground v.1.15,2013-01-30 23:35:00,
2013-01-30 18:45:00,56.4,52.9,29.46,South,175,10.0,10.0,88,0.00,,,0.00,Wunderground v.1.15,2013-01-30 23:45:00,
2013-01-30 18:50:00,56.2,52.7,29.47,SW,234,11.0,14.0,88,0.00,,,0.00,Wunderground v.1.15,2013-01-30 23:50:00,
2013-01-30 18:55:00,56.3,52.8,29.47,SW,232,11.0,14.0,88,0.00,,,0.00,Wunderground v.1.15,2013-01-30 23:55:00,
2013-01-30 19:00:00,56.5,52.7,29.47,WSW,239,12.0,12.0,87,0.00,,,0.00,Wunderground v.1.15,2013-01-31 00:00:00,
2013-01-30 19:10:00,56.6,52.5,29.46,SW,234,12.0,12.0,86,0.00,,,0.00,Wunderground v.1.15,2013-01-31 00:10:00,
2013-01-30 19:15:00,56.5,52.4,29.46,SW,229,13.0,13.0,86,0.00,,,0.00,Wunderground v.1.15,2013-01-31 00:15:00,
2013-01-30 19:24:00,55.7,52.2,29.45,WSW,248,12.0,14.0,88,0.00,,,0.01,Wunderground v.1.15,2013-01-31 00:24:00,
2013-01-30 19:35:00,55.3,52.1,29.43,WSW,238,9.0,10.0,89,0.00,,,0.01,Wunderground v.1.15,2013-01-31 00:35:00,
2013-01-30 19:40:00,55.0,52.1,29.43,WSW,258,9.0,13.0,90,0.00,,,0.01,Wunderground v.1.15,2013-01-31 00:40:00,
2013-01-30 19:49:00,55.2,52.3,29.43,WSW,245,11.0,11.0,90,0.00,,,0.01,Wunderground v.1.15,2013-01-31 00:49:00,
2013-01-30 19:54:00,55.6,52.1,29.42,WSW,246,13.0,14.0,88,0.00,,,0.01,Wunderground v.1.15,2013-01-31 00:54:00,
2013-01-30 20:00:00,55.7,51.9,29.42,WSW,242,14.0,19.0,87,0.00,,,0.01,Wunderground v.1.15,2013-01-31 01:00:00,
2013-01-30 20:09:00,55.6,52.1,29.42,WSW,246,12.0,17.0,88,0.00,,,0.01,Wunderground v.1.15,2013-01-31 01:09:00,
2013-01-30 20:15:00,55.4,52.2,29.43,WSW,244,12.0,17.0,89,0.00,,,0.01,Wunderground v.1.15,2013-01-31 01:15:00,
2013-01-30 20:20:00,55.4,51.9,29.43,West,261,12.0,12.0,88,0.00,,,0.01,Wunderground v.1.15,2013-01-31 01:20:00,
2013-01-30 20:25:00,55.1,51.9,29.42,SW,215,12.0,13.0,89,0.00,,,0.01,Wunderground v.1.15,2013-01-31 01:25:00,
2013-01-30 20:30:00,55.1,52.2,29.43,WSW,245,14.0,25.0,90,0.00,,,0.01,Wunderground v.1.15,2013-01-31 01:30:00,
2013-01-30 20:39:00,54.8,52.2,29.42,SW,227,14.0,14.0,91,0.00,,,0.01,Wunderground v.1.15,2013-01-31 01:39:00,
2013-01-30 20:44:00,54.7,52.1,29.41,WSW,244,13.0,14.0,91,0.00,,,0.01,Wunderground v.1.15,2013-01-31 01:44:00,
2013-01-30 20:50:00,54.5,51.9,29.41,WSW,248,12.0,12.0,91,0.00,,,0.01,Wunderground v.1.15,2013-01-31 01:50:00,
2013-01-30 20:55:00,54.3,52.0,29.40,South,174,12.0,13.0,92,0.00,,,0.02,Wunderground v.1.15,2013-01-31 01:55:00,
2013-01-30 21:00:00,53.9,51.9,29.39,SW,215,11.0,16.0,93,0.00,,,0.02,Wunderground v.1.15,2013-01-31 02:00:00,
2013-01-30 21:10:00,53.5,51.8,29.37,SW,228,11.0,11.0,94,0.07,,,0.03,Wunderground v.1.15,2013-01-31 02:10:00,
2013-01-30 21:19:00,53.5,52.1,29.37,SSW,213,11.0,11.0,95,0.07,,,0.04,Wunderground v.1.15,2013-01-31 02:19:00,
2013-01-30 21:24:00,53.6,52.2,29.37,WSW,244,11.0,24.0,95,0.06,,,0.05,Wunderground v.1.15,2013-01-31 02:24:00,
2013-01-30 21:29:00,53.6,52.2,29.36,SW,231,11.0,14.0,95,0.06,,,0.05,Wunderground v.1.15,2013-01-31 02:29:00,
2013-01-30 21:35:00,53.7,52.3,29.37,SW,228,11.0,14.0,95,0.05,,,0.06,Wunderground v.1.15,2013-01-31 02:35:00,
2013-01-30 21:40:00,53.8,52.4,29.37,SW,229,11.0,11.0,95,0.05,,,0.06,Wunderground v.1.15,2013-01-31 02:40:00,
2013-01-30 21:45:00,53.7,52.3,29.36,SSW,211,11.0,15.0,95,0.06,,,0.07,Wunderground v.1.15,2013-01-31 02:45:00,
2013-01-30 21:50:00,53.7,52.3,29.36,WSW,250,10.0,10.0,95,0.09,,,0.08,Wunderground v.1.15,2013-01-31 02:50:00,
2013-01-30 21:55:00,53.7,52.3,29.36,SSW,205,10.0,17.0,95,0.09,,,0.08,Wunderground v.1.15,2013-01-31 02:55:00,
2013-01-30 22:00:00,53.7,52.3,29.35,SSW,193,11.0,11.0,95,0.07,,,0.09,Wunderground v.1.15,2013-01-31 03:00:00,
2013-01-30 22:10:00,53.7,52.3,29.35,SW,217,11.0,11.0,95,0.08,,,0.10,Wunderground v.1.15,2013-01-31 03:10:00,
2013-01-30 22:19:00,53.7,52.3,29.34,SSW,211,12.0,20.0,95,0.09,,,0.12,Wunderground v.1.15,2013-01-31 03:19:00,
2013-01-30 22:29:00,53.6,52.2,29.34,SW,231,12.0,12.0,95,0.08,,,0.13,Wunderground v.1.15,2013-01-31 03:29:00,
2013-01-30 22:34:00,53.5,52.1,29.33,WSW,243,9.0,17.0,95,0.08,,,0.14,Wunderground v.1.15,2013-01-31 03:34:00,
2013-01-30 22:39:00,53.3,51.9,29.32,SW,222,8.0,8.0,95,0.08,,,0.14,Wunderground v.1.15,2013-01-31 03:39:00,
2013-01-30 22:44:00,53.4,52.3,29.31,SW,217,11.0,18.0,96,0.06,,,0.15,Wunderground v.1.15,2013-01-31 03:44:00,
2013-01-30 22:49:00,53.4,52.3,29.30,SSW,209,12.0,14.0,96,0.06,,,0.15,Wunderground v.1.15,2013-01-31 03:49:00,
2013-01-30 23:00:00,53.5,52.1,29.28,SSW,212,14.0,14.0,95,0.05,,,0.16,Wunderground v.1.15,2013-01-31 04:00:00,
2013-01-30 23:10:00,53.5,52.1,29.28,SSW,193,16.0,18.0,95,0.05,,,0.17,Wunderground v.1.15,2013-01-31 04:10:00,
2013-01-30 23:15:00,53.5,52.1,29.27,SSW,206,16.0,18.0,95,0.10,,,0.18,Wunderground v.1.15,2013-01-31 04:15:00,
2013-01-30 23:25:00,53.5,52.1,29.26,WSW,246,16.0,16.0,95,0.05,,,0.18,Wunderground v.1.15,2013-01-31 04:25:00,
2013-01-30 23:34:00,53.5,52.1,29.25,SSW,209,13.0,15.0,95,0.04,,,0.19,Wunderground v.1.15,2013-01-31 04:34:00,
2013-01-30 23:40:00,53.5,52.1,29.25,WSW,243,11.0,11.0,95,0.05,,,0.20,Wunderground v.1.15,2013-01-31 04:40:00,
2013-01-30 23:45:00,53.4,52.0,29.25,WSW,245,9.0,11.0,95,0.05,,,0.20,Wunderground v.1.15,2013-01-31 04:45:00,
2013-01-30 23:50:00,53.6,52.2,29.23,WSW,255,10.0,21.0,95,0.06,,,0.20,Wunderground v.1.15,2013-01-31 04:50:00,
2013-01-30 23:55:00,53.8,52.1,29.23,SW,215,12.0,21.0,94,0.06,,,0.21,Wunderground v.1.15,2013-01-31 04:55:00,